sensor_id;sensor_type;location;lat;lon;timestamp;P1;durP1;ratioP1;P2;durP2;ratioP2
36709;SDS011;22694;51.040;3.684;2022-11-15T00:19:27;8.50;;;6.80;;
36709;SDS011;22694;51.040;3.684;2022-11-15T00:21:53;7.20;;;6.10;;
36709;SDS011;22694;51.040;3.684;2022-11-15T00:24:19;8.45;;;7.35;;
36709;SDS011;22694;51.040;3.684;2022-11-15T00:26:44;8.75;;;6.55;;
36709;SDS011;22694;51.040;3.684;2022-11-15T00:29:10;8.05;;;6.28;;
36709;SDS011;22694;51.040;3.684;2022-11-15T00:31:41;7.68;;;6.13;;
36709;SDS011;22694;51.040;3.684;2022-11-15T00:36:57;9.40;;;7.20;;
36709;SDS011;22694;51.040;3.684;2022-11-15T00:39:22;8.70;;;6.57;;
36709;SDS011;22694;51.040;3.684;2022-11-15T00:41:48;9.30;;;6.68;;
36709;SDS011;22694;51.040;3.684;2022-11-15T00:44:13;7.55;;;6.35;;
36709;SDS011;22694;51.040;3.684;2022-11-15T00:46:39;8.20;;;6.18;;
36709;SDS011;22694;51.040;3.684;2022-11-15T00:49:04;7.25;;;6.55;;
36709;SDS011;22694;51.040;3.684;2022-11-15T00:51:30;7.75;;;5.97;;
36709;SDS011;22694;51.040;3.684;2022-11-15T00:56:31;8.05;;;5.93;;
36709;SDS011;22694;51.040;3.684;2022-11-15T00:58:57;7.07;;;5.95;;
36709;SDS011;22694;51.040;3.684;2022-11-15T01:01:22;6.35;;;5.40;;
36709;SDS011;22694;51.040;3.684;2022-11-15T01:03:48;6.22;;;5.60;;
36709;SDS011;22694;51.040;3.684;2022-11-15T01:06:14;6.38;;;5.55;;
36709;SDS011;22694;51.040;3.684;2022-11-15T01:08:55;7.22;;;5.47;;
36709;SDS011;22694;51.040;3.684;2022-11-15T01:11:21;6.82;;;5.75;;
36709;SDS011;22694;51.040;3.684;2022-11-15T01:13:46;6.90;;;5.47;;
36709;SDS011;22694;51.040;3.684;2022-11-15T01:16:13;8.18;;;5.72;;
36709;SDS011;22694;51.040;3.684;2022-11-15T01:18:41;6.32;;;5.45;;
36709;SDS011;22694;51.040;3.684;2022-11-15T01:21:11;6.60;;;5.53;;
36709;SDS011;22694;51.040;3.684;2022-11-15T01:23:39;6.80;;;5.38;;
36709;SDS011;22694;51.040;3.684;2022-11-15T01:26:06;6.47;;;5.70;;
36709;SDS011;22694;51.040;3.684;2022-11-15T01:28:35;6.30;;;5.20;;
36709;SDS011;22694;51.040;3.684;2022-11-15T01:31:02;5.97;;;5.20;;
36709;SDS011;22694;51.040;3.684;2022-11-15T01:33:30;6.35;;;4.95;;
36709;SDS011;22694;51.040;3.684;2022-11-15T01:35:58;8.00;;;5.00;;
36709;SDS011;22694;51.040;3.684;2022-11-15T01:38:29;5.95;;;5.10;;
36709;SDS011;22694;51.040;3.684;2022-11-15T01:40:54;5.32;;;4.63;;
36709;SDS011;22694;51.040;3.684;2022-11-15T01:43:24;5.65;;;4.75;;
36709;SDS011;22694;51.040;3.684;2022-11-15T01:45:52;6.38;;;5.10;;
36709;SDS011;22694;51.040;3.684;2022-11-15T01:48:25;5.63;;;4.78;;
36709;SDS011;22694;51.040;3.684;2022-11-15T01:50:56;5.40;;;4.85;;
36709;SDS011;22694;51.040;3.684;2022-11-15T01:53:23;6.85;;;4.95;;
36709;SDS011;22694;51.040;3.684;2022-11-15T01:55:51;6.38;;;4.60;;
36709;SDS011;22694;51.040;3.684;2022-11-15T01:58:17;6.63;;;4.38;;
36709;SDS011;22694;51.040;3.684;2022-11-15T02:00:43;5.40;;;4.50;;
36709;SDS011;22694;51.040;3.684;2022-11-15T02:03:09;5.93;;;4.40;;
36709;SDS011;22694;51.040;3.684;2022-11-15T02:05:35;5.03;;;4.50;;
36709;SDS011;22694;51.040;3.684;2022-11-15T02:08:02;4.97;;;4.40;;
36709;SDS011;22694;51.040;3.684;2022-11-15T02:10:27;4.70;;;4.30;;
36709;SDS011;22694;51.040;3.684;2022-11-15T02:12:53;7.63;;;4.75;;
36709;SDS011;22694;51.040;3.684;2022-11-15T02:15:21;4.95;;;4.28;;
36709;SDS011;22694;51.040;3.684;2022-11-15T02:20:35;5.65;;;4.18;;
36709;SDS011;22694;51.040;3.684;2022-11-15T02:23:26;4.50;;;4.10;;
36709;SDS011;22694;51.040;3.684;2022-11-15T02:29:10;5.00;;;4.30;;
36709;SDS011;22694;51.040;3.684;2022-11-15T02:31:58;4.95;;;3.80;;
36709;SDS011;22694;51.040;3.684;2022-11-15T02:37:17;4.07;;;3.67;;
36709;SDS011;22694;51.040;3.684;2022-11-15T02:40:09;5.78;;;3.75;;
36709;SDS011;22694;51.040;3.684;2022-11-15T02:42:57;4.13;;;3.70;;
36709;SDS011;22694;51.040;3.684;2022-11-15T02:45:49;4.43;;;3.70;;
36709;SDS011;22694;51.040;3.684;2022-11-15T02:48:20;4.80;;;3.70;;
36709;SDS011;22694;51.040;3.684;2022-11-15T02:58:40;4.40;;;3.60;;
36709;SDS011;22694;51.040;3.684;2022-11-15T03:04:10;4.07;;;3.63;;
36709;SDS011;22694;51.040;3.684;2022-11-15T03:07:34;4.40;;;3.08;;
36709;SDS011;22694;51.040;3.684;2022-11-15T03:09:50;4.30;;;3.17;;
36709;SDS011;22694;51.040;3.684;2022-11-15T03:12:36;5.53;;;3.47;;
36709;SDS011;22694;51.040;3.684;2022-11-15T03:15:12;4.55;;;3.47;;
36709;SDS011;22694;51.040;3.684;2022-11-15T03:18:21;3.35;;;3.05;;
36709;SDS011;22694;51.040;3.684;2022-11-15T03:20:59;4.45;;;3.08;;
36709;SDS011;22694;51.040;3.684;2022-11-15T03:23:28;4.35;;;3.33;;
36709;SDS011;22694;51.040;3.684;2022-11-15T03:25:56;3.40;;;3.10;;
36709;SDS011;22694;51.040;3.684;2022-11-15T03:28:34;3.58;;;3.28;;
36709;SDS011;22694;51.040;3.684;2022-11-15T03:31:19;3.17;;;2.88;;
36709;SDS011;22694;51.040;3.684;2022-11-15T03:34:10;5.40;;;3.47;;
36709;SDS011;22694;51.040;3.684;2022-11-15T03:36:44;3.28;;;2.97;;
36709;SDS011;22694;51.040;3.684;2022-11-15T03:39:10;4.05;;;2.72;;
36709;SDS011;22694;51.040;3.684;2022-11-15T03:41:49;4.25;;;3.08;;
36709;SDS011;22694;51.040;3.684;2022-11-15T03:47:23;3.08;;;2.70;;
36709;SDS011;22694;51.040;3.684;2022-11-15T03:50:03;4.03;;;3.20;;
36709;SDS011;22694;51.040;3.684;2022-11-15T03:52:41;2.53;;;2.33;;
36709;SDS011;22694;51.040;3.684;2022-11-15T03:55:10;5.32;;;2.97;;
36709;SDS011;22694;51.040;3.684;2022-11-15T03:57:38;3.65;;;2.70;;
36709;SDS011;22694;51.040;3.684;2022-11-15T04:00:04;3.55;;;2.50;;
36709;SDS011;22694;51.040;3.684;2022-11-15T04:02:30;3.65;;;2.70;;
36709;SDS011;22694;51.040;3.684;2022-11-15T04:04:56;2.70;;;2.40;;
36709;SDS011;22694;51.040;3.684;2022-11-15T04:07:21;3.67;;;2.40;;
36709;SDS011;22694;51.040;3.684;2022-11-15T04:09:47;4.75;;;2.72;;
36709;SDS011;22694;51.040;3.684;2022-11-15T04:12:31;3.78;;;2.42;;
36709;SDS011;22694;51.040;3.684;2022-11-15T04:15:05;2.67;;;2.30;;
36709;SDS011;22694;51.040;3.684;2022-11-15T04:17:54;3.10;;;2.78;;
36709;SDS011;22694;51.040;3.684;2022-11-15T04:20:24;3.53;;;2.47;;
36709;SDS011;22694;51.040;3.684;2022-11-15T04:23:14;3.70;;;2.17;;
36709;SDS011;22694;51.040;3.684;2022-11-15T04:26:01;3.67;;;2.45;;
36709;SDS011;22694;51.040;3.684;2022-11-15T04:28:28;2.58;;;2.35;;
36709;SDS011;22694;51.040;3.684;2022-11-15T04:30:54;4.40;;;2.22;;
36709;SDS011;22694;51.040;3.684;2022-11-15T04:33:20;2.20;;;2.00;;
36709;SDS011;22694;51.040;3.684;2022-11-15T04:35:46;3.33;;;2.05;;
36709;SDS011;22694;51.040;3.684;2022-11-15T04:38:31;2.70;;;2.17;;
36709;SDS011;22694;51.040;3.684;2022-11-15T04:40:57;2.70;;;1.95;;
36709;SDS011;22694;51.040;3.684;2022-11-15T04:43:23;3.28;;;2.17;;
36709;SDS011;22694;51.040;3.684;2022-11-15T04:45:48;2.75;;;2.30;;
36709;SDS011;22694;51.040;3.684;2022-11-15T04:48:14;2.53;;;1.67;;
36709;SDS011;22694;51.040;3.684;2022-11-15T04:50:39;2.17;;;1.92;;
36709;SDS011;22694;51.040;3.684;2022-11-15T04:53:08;2.35;;;2.15;;
36709;SDS011;22694;51.040;3.684;2022-11-15T04:55:34;2.00;;;1.80;;
36709;SDS011;22694;51.040;3.684;2022-11-15T04:58:00;2.20;;;1.95;;
36709;SDS011;22694;51.040;3.684;2022-11-15T05:00:27;2.28;;;2.00;;
36709;SDS011;22694;51.040;3.684;2022-11-15T05:02:53;2.58;;;2.03;;
36709;SDS011;22694;51.040;3.684;2022-11-15T05:05:38;2.30;;;2.00;;
36709;SDS011;22694;51.040;3.684;2022-11-15T05:08:04;1.95;;;1.75;;
36709;SDS011;22694;51.040;3.684;2022-11-15T05:10:29;3.55;;;1.98;;
36709;SDS011;22694;51.040;3.684;2022-11-15T05:12:55;2.00;;;1.73;;
36709;SDS011;22694;51.040;3.684;2022-11-15T05:15:21;2.25;;;1.70;;
36709;SDS011;22694;51.040;3.684;2022-11-15T05:17:46;3.75;;;2.10;;
36709;SDS011;22694;51.040;3.684;2022-11-15T05:20:12;3.33;;;1.80;;
36709;SDS011;22694;51.040;3.684;2022-11-15T05:22:38;2.38;;;1.52;;
36709;SDS011;22694;51.040;3.684;2022-11-15T05:25:04;2.65;;;1.60;;
36709;SDS011;22694;51.040;3.684;2022-11-15T05:27:30;1.80;;;1.52;;
36709;SDS011;22694;51.040;3.684;2022-11-15T05:29:55;2.60;;;1.73;;
36709;SDS011;22694;51.040;3.684;2022-11-15T05:32:21;2.83;;;1.70;;
36709;SDS011;22694;51.040;3.684;2022-11-15T05:34:46;3.13;;;1.60;;
36709;SDS011;22694;51.040;3.684;2022-11-15T05:37:13;2.53;;;1.55;;
36709;SDS011;22694;51.040;3.684;2022-11-15T05:39:39;2.95;;;1.77;;
36709;SDS011;22694;51.040;3.684;2022-11-15T05:42:06;3.72;;;1.98;;
36709;SDS011;22694;51.040;3.684;2022-11-15T05:44:32;2.60;;;1.65;;
36709;SDS011;22694;51.040;3.684;2022-11-15T05:47:01;1.98;;;1.65;;
36709;SDS011;22694;51.040;3.684;2022-11-15T05:49:29;3.30;;;1.60;;
36709;SDS011;22694;51.040;3.684;2022-11-15T05:51:58;2.85;;;1.40;;
36709;SDS011;22694;51.040;3.684;2022-11-15T05:54:24;2.67;;;1.80;;
36709;SDS011;22694;51.040;3.684;2022-11-15T05:56:50;1.63;;;1.50;;
36709;SDS011;22694;51.040;3.684;2022-11-15T05:59:16;2.70;;;1.50;;
36709;SDS011;22694;51.040;3.684;2022-11-15T06:01:42;6.15;;;1.70;;
36709;SDS011;22694;51.040;3.684;2022-11-15T06:04:08;1.52;;;1.42;;
36709;SDS011;22694;51.040;3.684;2022-11-15T06:06:34;2.40;;;1.63;;
36709;SDS011;22694;51.040;3.684;2022-11-15T06:08:59;2.90;;;1.58;;
36709;SDS011;22694;51.040;3.684;2022-11-15T06:11:25;2.67;;;1.50;;
36709;SDS011;22694;51.040;3.684;2022-11-15T06:13:50;2.45;;;1.73;;
36709;SDS011;22694;51.040;3.684;2022-11-15T06:16:16;2.58;;;1.20;;
36709;SDS011;22694;51.040;3.684;2022-11-15T06:18:42;2.30;;;1.13;;
36709;SDS011;22694;51.040;3.684;2022-11-15T06:21:08;4.88;;;1.52;;
36709;SDS011;22694;51.040;3.684;2022-11-15T06:23:34;2.80;;;1.48;;
36709;SDS011;22694;51.040;3.684;2022-11-15T06:26:00;2.17;;;1.35;;
36709;SDS011;22694;51.040;3.684;2022-11-15T06:28:30;1.17;;;1.08;;
36709;SDS011;22694;51.040;3.684;2022-11-15T06:31:01;3.00;;;1.20;;
36709;SDS011;22694;51.040;3.684;2022-11-15T06:33:28;1.52;;;1.10;;
36709;SDS011;22694;51.040;3.684;2022-11-15T06:35:54;3.33;;;1.20;;
36709;SDS011;22694;51.040;3.684;2022-11-15T06:38:19;2.30;;;1.45;;
36709;SDS011;22694;51.040;3.684;2022-11-15T06:40:45;2.22;;;1.38;;
36709;SDS011;22694;51.040;3.684;2022-11-15T06:43:10;1.88;;;1.50;;
36709;SDS011;22694;51.040;3.684;2022-11-15T06:45:36;1.20;;;1.05;;
36709;SDS011;22694;51.040;3.684;2022-11-15T06:48:02;2.28;;;1.40;;
36709;SDS011;22694;51.040;3.684;2022-11-15T06:50:27;1.85;;;1.30;;
36709;SDS011;22694;51.040;3.684;2022-11-15T06:52:53;2.42;;;1.52;;
36709;SDS011;22694;51.040;3.684;2022-11-15T06:55:19;2.58;;;1.30;;
36709;SDS011;22694;51.040;3.684;2022-11-15T06:57:51;2.25;;;1.23;;
36709;SDS011;22694;51.040;3.684;2022-11-15T07:00:18;4.03;;;1.33;;
36709;SDS011;22694;51.040;3.684;2022-11-15T07:02:45;1.33;;;1.20;;
36709;SDS011;22694;51.040;3.684;2022-11-15T07:05:12;4.68;;;1.65;;
36709;SDS011;22694;51.040;3.684;2022-11-15T07:07:38;6.80;;;1.42;;
36709;SDS011;22694;51.040;3.684;2022-11-15T07:10:04;9.38;;;1.90;;
36709;SDS011;22694;51.040;3.684;2022-11-15T07:12:30;7.43;;;1.73;;
36709;SDS011;22694;51.040;3.684;2022-11-15T07:14:56;4.35;;;1.70;;
36709;SDS011;22694;51.040;3.684;2022-11-15T07:17:21;6.03;;;1.85;;
36709;SDS011;22694;51.040;3.684;2022-11-15T07:19:47;3.42;;;1.60;;
36709;SDS011;22694;51.040;3.684;2022-11-15T07:22:12;2.75;;;1.48;;
36709;SDS011;22694;51.040;3.684;2022-11-15T07:24:38;5.03;;;1.55;;
36709;SDS011;22694;51.040;3.684;2022-11-15T07:27:04;11.75;;;2.30;;
36709;SDS011;22694;51.040;3.684;2022-11-15T07:29:29;9.23;;;2.05;;
36709;SDS011;22694;51.040;3.684;2022-11-15T07:31:55;2.22;;;1.40;;
36709;SDS011;22694;51.040;3.684;2022-11-15T07:34:20;6.13;;;2.30;;
36709;SDS011;22694;51.040;3.684;2022-11-15T07:36:46;6.00;;;1.45;;
36709;SDS011;22694;51.040;3.684;2022-11-15T07:39:12;4.32;;;1.92;;
36709;SDS011;22694;51.040;3.684;2022-11-15T07:41:39;5.28;;;1.40;;
36709;SDS011;22694;51.040;3.684;2022-11-15T07:44:04;4.32;;;1.48;;
36709;SDS011;22694;51.040;3.684;2022-11-15T07:46:30;4.07;;;1.55;;
36709;SDS011;22694;51.040;3.684;2022-11-15T07:48:56;4.97;;;1.95;;
36709;SDS011;22694;51.040;3.684;2022-11-15T07:51:22;4.63;;;1.50;;
36709;SDS011;22694;51.040;3.684;2022-11-15T07:53:48;5.00;;;1.58;;
36709;SDS011;22694;51.040;3.684;2022-11-15T07:56:13;3.97;;;1.00;;
36709;SDS011;22694;51.040;3.684;2022-11-15T07:58:39;2.83;;;1.30;;
36709;SDS011;22694;51.040;3.684;2022-11-15T08:01:05;4.43;;;1.23;;
36709;SDS011;22694;51.040;3.684;2022-11-15T08:03:32;3.60;;;1.17;;
36709;SDS011;22694;51.040;3.684;2022-11-15T08:05:58;1.98;;;0.88;;
36709;SDS011;22694;51.040;3.684;2022-11-15T08:08:24;2.28;;;1.10;;
36709;SDS011;22694;51.040;3.684;2022-11-15T08:10:49;2.60;;;1.00;;
36709;SDS011;22694;51.040;3.684;2022-11-15T08:13:15;2.70;;;1.15;;
36709;SDS011;22694;51.040;3.684;2022-11-15T08:15:41;2.63;;;1.00;;
36709;SDS011;22694;51.040;3.684;2022-11-15T08:18:11;2.88;;;1.10;;
36709;SDS011;22694;51.040;3.684;2022-11-15T08:20:38;2.30;;;1.02;;
36709;SDS011;22694;51.040;3.684;2022-11-15T08:23:04;2.83;;;1.20;;
36709;SDS011;22694;51.040;3.684;2022-11-15T08:25:31;2.65;;;1.00;;
36709;SDS011;22694;51.040;3.684;2022-11-15T08:27:59;3.03;;;0.90;;
36709;SDS011;22694;51.040;3.684;2022-11-15T08:30:28;1.20;;;0.90;;
36709;SDS011;22694;51.040;3.684;2022-11-15T08:32:55;2.78;;;1.10;;
36709;SDS011;22694;51.040;3.684;2022-11-15T08:35:23;3.33;;;1.00;;
36709;SDS011;22694;51.040;3.684;2022-11-15T08:37:49;2.75;;;1.10;;
36709;SDS011;22694;51.040;3.684;2022-11-15T08:40:14;1.42;;;0.98;;
36709;SDS011;22694;51.040;3.684;2022-11-15T08:42:40;1.40;;;1.00;;
36709;SDS011;22694;51.040;3.684;2022-11-15T08:45:07;4.20;;;1.02;;
36709;SDS011;22694;51.040;3.684;2022-11-15T08:47:33;3.92;;;1.52;;
36709;SDS011;22694;51.040;3.684;2022-11-15T08:49:59;1.95;;;1.15;;
36709;SDS011;22694;51.040;3.684;2022-11-15T08:52:25;4.63;;;1.40;;
36709;SDS011;22694;51.040;3.684;2022-11-15T08:54:51;3.95;;;1.48;;
36709;SDS011;22694;51.040;3.684;2022-11-15T08:57:16;3.97;;;1.30;;
36709;SDS011;22694;51.040;3.684;2022-11-15T08:59:42;6.03;;;1.77;;
36709;SDS011;22694;51.040;3.684;2022-11-15T09:02:12;5.88;;;2.25;;
36709;SDS011;22694;51.040;3.684;2022-11-15T09:04:39;3.85;;;1.25;;
36709;SDS011;22694;51.040;3.684;2022-11-15T09:07:11;5.20;;;1.50;;
36709;SDS011;22694;51.040;3.684;2022-11-15T09:09:38;4.10;;;1.58;;
36709;SDS011;22694;51.040;3.684;2022-11-15T09:12:04;5.35;;;1.58;;
36709;SDS011;22694;51.040;3.684;2022-11-15T09:14:30;3.28;;;1.40;;
36709;SDS011;22694;51.040;3.684;2022-11-15T09:16:56;4.47;;;1.80;;
36709;SDS011;22694;51.040;3.684;2022-11-15T09:19:22;5.90;;;1.60;;
36709;SDS011;22694;51.040;3.684;2022-11-15T09:21:47;2.53;;;1.55;;
36709;SDS011;22694;51.040;3.684;2022-11-15T09:24:13;4.22;;;1.60;;
36709;SDS011;22694;51.040;3.684;2022-11-15T09:26:38;4.47;;;1.52;;
36709;SDS011;22694;51.040;3.684;2022-11-15T09:29:04;4.10;;;1.23;;
36709;SDS011;22694;51.040;3.684;2022-11-15T09:31:30;2.85;;;1.45;;
36709;SDS011;22694;51.040;3.684;2022-11-15T09:33:56;3.72;;;1.60;;
36709;SDS011;22694;51.040;3.684;2022-11-15T09:36:21;2.65;;;1.23;;
36709;SDS011;22694;51.040;3.684;2022-11-15T09:38:47;3.38;;;1.20;;
36709;SDS011;22694;51.040;3.684;2022-11-15T09:49:09;4.32;;;1.27;;
36709;SDS011;22694;51.040;3.684;2022-11-15T09:51:40;2.42;;;1.10;;
36709;SDS011;22694;51.040;3.684;2022-11-15T09:54:28;1.58;;;1.00;;
36709;SDS011;22694;51.040;3.684;2022-11-15T09:56:55;4.88;;;1.40;;
36709;SDS011;22694;51.040;3.684;2022-11-15T09:59:40;2.70;;;1.05;;
36709;SDS011;22694;51.040;3.684;2022-11-15T10:02:42;2.88;;;1.30;;
36709;SDS011;22694;51.040;3.684;2022-11-15T10:05:04;2.83;;;1.35;;
36709;SDS011;22694;51.040;3.684;2022-11-15T10:10:41;4.05;;;1.25;;
36709;SDS011;22694;51.040;3.684;2022-11-15T10:13:17;2.42;;;1.02;;
36709;SDS011;22694;51.040;3.684;2022-11-15T10:15:48;2.05;;;1.10;;
36709;SDS011;22694;51.040;3.684;2022-11-15T10:18:34;3.50;;;1.17;;
36709;SDS011;22694;51.040;3.684;2022-11-15T10:21:17;2.92;;;1.20;;
36709;SDS011;22694;51.040;3.684;2022-11-15T10:23:46;1.40;;;0.80;;
36709;SDS011;22694;51.040;3.684;2022-11-15T10:26:14;1.63;;;1.02;;
36709;SDS011;22694;51.040;3.684;2022-11-15T10:28:41;2.03;;;0.82;;
36709;SDS011;22694;51.040;3.684;2022-11-15T10:31:27;2.22;;;1.13;;
36709;SDS011;22694;51.040;3.684;2022-11-15T10:34:09;1.63;;;1.02;;
36709;SDS011;22694;51.040;3.684;2022-11-15T10:36:36;3.75;;;1.00;;
36709;SDS011;22694;51.040;3.684;2022-11-15T10:39:02;2.85;;;0.93;;
36709;SDS011;22694;51.040;3.684;2022-11-15T10:41:30;2.65;;;1.23;;
36709;SDS011;22694;51.040;3.684;2022-11-15T10:46:45;2.92;;;1.05;;
36709;SDS011;22694;51.040;3.684;2022-11-15T10:49:26;1.60;;;0.90;;
36709;SDS011;22694;51.040;3.684;2022-11-15T10:54:23;4.18;;;1.10;;
36709;SDS011;22694;51.040;3.684;2022-11-15T10:56:54;3.53;;;1.08;;
36709;SDS011;22694;51.040;3.684;2022-11-15T10:59:31;2.65;;;1.00;;
36709;SDS011;22694;51.040;3.684;2022-11-15T11:01:59;1.45;;;0.90;;
36709;SDS011;22694;51.040;3.684;2022-11-15T11:04:25;2.00;;;0.90;;
36709;SDS011;22694;51.040;3.684;2022-11-15T11:06:51;2.40;;;1.25;;
36709;SDS011;22694;51.040;3.684;2022-11-15T11:09:31;1.75;;;0.60;;
36709;SDS011;22694;51.040;3.684;2022-11-15T11:12:05;2.58;;;1.00;;
36709;SDS011;22694;51.040;3.684;2022-11-15T11:14:35;3.25;;;0.98;;
36709;SDS011;22694;51.040;3.684;2022-11-15T11:19:39;2.70;;;1.00;;
36709;SDS011;22694;51.040;3.684;2022-11-15T11:22:17;3.08;;;0.80;;
36709;SDS011;22694;51.040;3.684;2022-11-15T11:30:10;2.75;;;1.20;;
36709;SDS011;22694;51.040;3.684;2022-11-15T11:33:10;2.95;;;1.00;;
36709;SDS011;22694;51.040;3.684;2022-11-15T11:39:00;1.48;;;0.73;;
36709;SDS011;22694;51.040;3.684;2022-11-15T11:41:53;2.97;;;0.98;;
36709;SDS011;22694;51.040;3.684;2022-11-15T11:44:36;2.03;;;0.68;;
36709;SDS011;22694;51.040;3.684;2022-11-15T11:47:37;3.40;;;0.95;;
36709;SDS011;22694;51.040;3.684;2022-11-15T11:50:13;2.42;;;0.77;;
36709;SDS011;22694;51.040;3.684;2022-11-15T11:55:42;1.65;;;0.90;;
36709;SDS011;22694;51.040;3.684;2022-11-15T12:00:49;2.03;;;0.80;;
36709;SDS011;22694;51.040;3.684;2022-11-15T12:08:49;2.05;;;0.80;;
36709;SDS011;22694;51.040;3.684;2022-11-15T12:13:44;3.92;;;0.90;;
36709;SDS011;22694;51.040;3.684;2022-11-15T12:16:17;1.20;;;0.70;;
36709;SDS011;22694;51.040;3.684;2022-11-15T12:18:48;3.45;;;0.80;;
36709;SDS011;22694;51.040;3.684;2022-11-15T12:26:49;1.60;;;0.70;;
36709;SDS011;22694;51.040;3.684;2022-11-15T12:29:35;0.70;;;0.65;;
36709;SDS011;22694;51.040;3.684;2022-11-15T12:32:12;1.80;;;0.90;;
36709;SDS011;22694;51.040;3.684;2022-11-15T12:34:49;1.38;;;0.60;;
36709;SDS011;22694;51.040;3.684;2022-11-15T12:38:01;1.92;;;0.90;;
36709;SDS011;22694;51.040;3.684;2022-11-15T12:42:35;1.73;;;0.77;;
36709;SDS011;22694;51.040;3.684;2022-11-15T12:47:56;2.35;;;0.77;;
36709;SDS011;22694;51.040;3.684;2022-11-15T13:04:13;1.85;;;0.80;;
36709;SDS011;22694;51.040;3.684;2022-11-15T13:06:46;2.05;;;0.68;;
36709;SDS011;22694;51.040;3.684;2022-11-15T13:11:58;2.15;;;0.63;;
36709;SDS011;22694;51.040;3.684;2022-11-15T13:14:37;2.63;;;0.88;;
36709;SDS011;22694;51.040;3.684;2022-11-15T13:20:28;1.15;;;0.85;;
36709;SDS011;22694;51.040;3.684;2022-11-15T13:33:19;0.88;;;0.55;;
36709;SDS011;22694;51.040;3.684;2022-11-15T13:35:46;1.70;;;0.90;;
36709;SDS011;22694;51.040;3.684;2022-11-15T13:38:19;0.88;;;0.68;;
36709;SDS011;22694;51.040;3.684;2022-11-15T13:40:57;0.60;;;0.57;;
36709;SDS011;22694;51.040;3.684;2022-11-15T13:43:28;1.30;;;0.60;;
36709;SDS011;22694;51.040;3.684;2022-11-15T13:46:18;2.28;;;0.77;;
36709;SDS011;22694;51.040;3.684;2022-11-15T13:48:53;2.17;;;0.73;;
36709;SDS011;22694;51.040;3.684;2022-11-15T13:53:49;0.80;;;0.57;;
36709;SDS011;22694;51.040;3.684;2022-11-15T13:56:18;1.15;;;0.50;;
36709;SDS011;22694;51.040;3.684;2022-11-15T13:58:45;1.85;;;0.80;;
36709;SDS011;22694;51.040;3.684;2022-11-15T14:01:18;1.45;;;0.70;;
36709;SDS011;22694;51.040;3.684;2022-11-15T14:03:47;1.73;;;0.73;;
36709;SDS011;22694;51.040;3.684;2022-11-15T14:06:19;2.30;;;0.68;;
36709;SDS011;22694;51.040;3.684;2022-11-15T14:09:00;1.65;;;0.60;;
36709;SDS011;22694;51.040;3.684;2022-11-15T14:11:34;1.58;;;0.73;;
36709;SDS011;22694;51.040;3.684;2022-11-15T14:16:33;2.00;;;0.63;;
36709;SDS011;22694;51.040;3.684;2022-11-15T14:24:32;1.90;;;0.40;;
36709;SDS011;22694;51.040;3.684;2022-11-15T14:27:15;2.58;;;0.93;;
36709;SDS011;22694;51.040;3.684;2022-11-15T14:29:49;1.38;;;0.77;;
36709;SDS011;22694;51.040;3.684;2022-11-15T14:32:25;2.10;;;0.50;;
36709;SDS011;22694;51.040;3.684;2022-11-15T14:34:56;1.10;;;0.50;;
36709;SDS011;22694;51.040;3.684;2022-11-15T14:37:32;1.15;;;0.95;;
36709;SDS011;22694;51.040;3.684;2022-11-15T14:40:03;2.90;;;1.10;;
36709;SDS011;22694;51.040;3.684;2022-11-15T14:42:30;1.80;;;1.20;;
36709;SDS011;22694;51.040;3.684;2022-11-15T14:44:56;2.50;;;1.33;;
36709;SDS011;22694;51.040;3.684;2022-11-15T14:47:21;1.90;;;1.10;;
36709;SDS011;22694;51.040;3.684;2022-11-15T14:49:47;2.10;;;1.00;;
36709;SDS011;22694;51.040;3.684;2022-11-15T14:52:22;1.52;;;0.88;;
36709;SDS011;22694;51.040;3.684;2022-11-15T14:54:49;1.50;;;1.00;;
36709;SDS011;22694;51.040;3.684;2022-11-15T14:57:14;1.30;;;0.80;;
36709;SDS011;22694;51.040;3.684;2022-11-15T14:59:40;4.03;;;0.80;;
36709;SDS011;22694;51.040;3.684;2022-11-15T15:02:24;0.93;;;0.70;;
36709;SDS011;22694;51.040;3.684;2022-11-15T15:04:51;0.90;;;0.70;;
36709;SDS011;22694;51.040;3.684;2022-11-15T15:07:18;2.00;;;0.90;;
36709;SDS011;22694;51.040;3.684;2022-11-15T15:09:44;4.00;;;0.90;;
36709;SDS011;22694;51.040;3.684;2022-11-15T15:12:16;2.63;;;0.88;;
36709;SDS011;22694;51.040;3.684;2022-11-15T15:14:44;2.55;;;1.00;;
36709;SDS011;22694;51.040;3.684;2022-11-15T15:17:11;1.70;;;0.93;;
36709;SDS011;22694;51.040;3.684;2022-11-15T15:19:37;1.45;;;0.80;;
36709;SDS011;22694;51.040;3.684;2022-11-15T15:22:02;1.73;;;0.70;;
36709;SDS011;22694;51.040;3.684;2022-11-15T15:24:28;0.93;;;0.60;;
36709;SDS011;22694;51.040;3.684;2022-11-15T15:26:54;0.85;;;0.75;;
36709;SDS011;22694;51.040;3.684;2022-11-15T15:29:19;1.02;;;0.90;;
36709;SDS011;22694;51.040;3.684;2022-11-15T15:31:45;1.02;;;0.80;;
36709;SDS011;22694;51.040;3.684;2022-11-15T15:34:10;1.30;;;0.80;;
36709;SDS011;22694;51.040;3.684;2022-11-15T15:36:36;1.50;;;1.00;;
36709;SDS011;22694;51.040;3.684;2022-11-15T15:39:02;1.08;;;0.80;;
36709;SDS011;22694;51.040;3.684;2022-11-15T15:41:27;0.98;;;0.70;;
36709;SDS011;22694;51.040;3.684;2022-11-15T15:43:53;1.10;;;0.70;;
36709;SDS011;22694;51.040;3.684;2022-11-15T15:46:19;1.00;;;0.85;;
36709;SDS011;22694;51.040;3.684;2022-11-15T15:48:45;1.52;;;1.00;;
36709;SDS011;22694;51.040;3.684;2022-11-15T15:51:11;1.17;;;0.73;;
36709;SDS011;22694;51.040;3.684;2022-11-15T15:53:37;1.70;;;0.90;;
36709;SDS011;22694;51.040;3.684;2022-11-15T15:56:04;2.97;;;0.90;;
36709;SDS011;22694;51.040;3.684;2022-11-15T15:58:32;1.25;;;0.82;;
36709;SDS011;22694;51.040;3.684;2022-11-15T16:00:58;1.75;;;0.70;;
36709;SDS011;22694;51.040;3.684;2022-11-15T16:03:24;3.78;;;1.00;;
36709;SDS011;22694;51.040;3.684;2022-11-15T16:05:50;1.00;;;0.80;;
36709;SDS011;22694;51.040;3.684;2022-11-15T16:08:19;2.38;;;1.00;;
36709;SDS011;22694;51.040;3.684;2022-11-15T16:10:47;0.70;;;0.70;;
36709;SDS011;22694;51.040;3.684;2022-11-15T16:13:12;1.48;;;0.75;;
36709;SDS011;22694;51.040;3.684;2022-11-15T16:15:38;1.00;;;0.80;;
36709;SDS011;22694;51.040;3.684;2022-11-15T16:18:04;0.98;;;0.70;;
36709;SDS011;22694;51.040;3.684;2022-11-15T16:20:40;3.00;;;1.00;;
36709;SDS011;22694;51.040;3.684;2022-11-15T16:23:12;2.33;;;1.00;;
36709;SDS011;22694;51.040;3.684;2022-11-15T16:25:49;2.08;;;1.05;;
36709;SDS011;22694;51.040;3.684;2022-11-15T16:28:20;1.77;;;0.80;;
36709;SDS011;22694;51.040;3.684;2022-11-15T16:30:48;0.93;;;0.70;;
36709;SDS011;22694;51.040;3.684;2022-11-15T16:33:15;2.55;;;0.80;;
36709;SDS011;22694;51.040;3.684;2022-11-15T16:35:42;1.67;;;0.98;;
36709;SDS011;22694;51.040;3.684;2022-11-15T16:38:12;1.13;;;0.88;;
36709;SDS011;22694;51.040;3.684;2022-11-15T16:40:40;2.45;;;1.20;;
36709;SDS011;22694;51.040;3.684;2022-11-15T16:43:05;2.17;;;1.02;;
36709;SDS011;22694;51.040;3.684;2022-11-15T16:45:33;1.80;;;1.10;;
36709;SDS011;22694;51.040;3.684;2022-11-15T16:48:00;2.95;;;1.08;;
36709;SDS011;22694;51.040;3.684;2022-11-15T16:50:27;1.45;;;0.70;;
36709;SDS011;22694;51.040;3.684;2022-11-15T16:52:57;2.15;;;0.80;;
36709;SDS011;22694;51.040;3.684;2022-11-15T16:55:27;0.70;;;0.70;;
36709;SDS011;22694;51.040;3.684;2022-11-15T16:57:54;0.60;;;0.60;;
36709;SDS011;22694;51.040;3.684;2022-11-15T17:00:25;0.73;;;0.70;;
36709;SDS011;22694;51.040;3.684;2022-11-15T17:02:51;2.05;;;0.82;;
36709;SDS011;22694;51.040;3.684;2022-11-15T17:05:20;1.95;;;0.80;;
36709;SDS011;22694;51.040;3.684;2022-11-15T17:07:47;0.80;;;0.80;;
36709;SDS011;22694;51.040;3.684;2022-11-15T17:10:14;1.30;;;0.70;;
36709;SDS011;22694;51.040;3.684;2022-11-15T17:12:40;1.52;;;0.95;;
36709;SDS011;22694;51.040;3.684;2022-11-15T17:15:06;1.60;;;0.90;;
36709;SDS011;22694;51.040;3.684;2022-11-15T17:17:32;0.65;;;0.63;;
36709;SDS011;22694;51.040;3.684;2022-11-15T17:19:57;1.67;;;1.02;;
36709;SDS011;22694;51.040;3.684;2022-11-15T17:22:23;2.72;;;0.98;;